createdAt,value
2023-01-21T00:00:33.085Z,1.71
2023-01-21T00:01:36.225Z,1.50
2023-01-21T00:02:39.425Z,1.86
2023-01-21T00:03:42.574Z,1.72
2023-01-21T00:04:46.424Z,1.81
2023-01-21T00:05:49.830Z,1.65
2023-01-21T00:06:52.970Z,1.76
2023-01-21T00:07:56.163Z,2.09
2023-01-21T00:08:59.407Z,1.97
2023-01-21T00:10:02.619Z,2.81
2023-01-21T00:11:07.234Z,2.13
2023-01-21T00:12:10.300Z,2.12
2023-01-21T00:13:13.491Z,1.89
2023-01-21T00:14:16.676Z,1.94
2023-01-21T00:15:19.840Z,2.07
2023-01-21T00:16:22.894Z,1.99
2023-01-21T00:17:26.090Z,1.89
2023-01-21T00:18:30.157Z,1.82
2023-01-21T00:19:33.310Z,2.01
2023-01-21T00:20:36.399Z,2.12
2023-01-21T00:21:39.486Z,1.91
2023-01-21T00:22:42.629Z,2.16
2023-01-21T00:23:45.698Z,1.76
2023-01-21T00:24:48.856Z,1.82
2023-01-21T00:25:59.090Z,2.04
2023-01-21T00:27:02.479Z,2.24
2023-01-21T00:28:05.651Z,2.11
2023-01-21T00:29:10.718Z,1.81
2023-01-21T00:30:15.192Z,2.12
2023-01-21T00:31:18.523Z,1.87
2023-01-21T00:32:21.564Z,2.04
2023-01-21T00:33:24.860Z,2.08
2023-01-21T00:34:27.933Z,2.07
2023-01-21T00:35:31.017Z,1.69
2023-01-21T00:36:34.113Z,1.66
2023-01-21T00:37:37.269Z,1.84
2023-01-21T00:38:40.634Z,1.80
2023-01-21T00:39:43.800Z,1.90
2023-01-21T00:40:47.186Z,1.82
2023-01-21T00:41:50.365Z,1.92
2023-01-21T00:42:53.548Z,1.92
2023-01-21T00:43:56.611Z,2.11
2023-01-21T00:44:59.710Z,1.58
2023-01-21T00:46:03.202Z,1.88
2023-01-21T00:47:06.949Z,1.92
2023-01-21T00:48:10.110Z,1.79
2023-01-21T00:49:13.187Z,2.00
2023-01-21T00:50:16.786Z,1.97
2023-01-21T00:51:20.113Z,1.86
2023-01-21T00:52:23.213Z,1.76
2023-01-21T00:53:30.676Z,1.74
2023-01-21T00:54:34.058Z,1.63
2023-01-21T00:55:37.259Z,2.17
2023-01-21T00:56:40.623Z,1.72
2023-01-21T00:57:43.829Z,1.80
2023-01-21T00:58:47.096Z,1.81
2023-01-21T00:59:50.483Z,1.69
2023-01-21T01:01:04.732Z,1.83
2023-01-21T01:02:08.634Z,2.12
2023-01-21T01:03:11.823Z,1.66
2023-01-21T01:04:14.942Z,1.59
2023-01-21T01:05:19.433Z,2.11
2023-01-21T01:06:24.053Z,1.72
2023-01-21T01:07:27.300Z,1.85
2023-01-21T01:08:30.587Z,1.60
2023-01-21T01:09:33.978Z,1.97
2023-01-21T01:10:37.389Z,1.81
2023-01-21T01:11:40.543Z,1.65
2023-01-21T01:12:43.704Z,1.68
2023-01-21T01:13:46.784Z,1.62
2023-01-21T01:14:49.980Z,1.62
2023-01-21T01:15:56.856Z,1.45
2023-01-21T01:17:00.018Z,1.72
2023-01-21T01:18:03.200Z,1.45
2023-01-21T01:19:06.247Z,1.67
2023-01-21T01:20:11.025Z,1.73
2023-01-21T01:21:16.852Z,1.85
2023-01-21T01:22:19.924Z,2.16
2023-01-21T01:23:23.388Z,1.90
2023-01-21T01:24:26.385Z,1.53
2023-01-21T01:25:29.569Z,2.03
2023-01-21T01:26:34.957Z,2.16
2023-01-21T01:27:38.150Z,2.10
2023-01-21T01:28:41.301Z,1.85
2023-01-21T01:29:44.482Z,1.94
2023-01-21T01:30:47.642Z,1.72
2023-01-21T01:31:50.865Z,1.91
2023-01-21T01:32:54.038Z,1.89
2023-01-21T01:33:57.401Z,1.95
2023-01-21T01:35:00.572Z,1.88
2023-01-21T01:36:06.393Z,2.06
2023-01-21T01:37:09.479Z,1.96
2023-01-21T01:38:15.204Z,1.89
2023-01-21T01:39:18.289Z,2.19
2023-01-21T01:40:40.159Z,1.82
2023-01-21T01:41:43.332Z,1.93
2023-01-21T01:42:46.390Z,1.99
2023-01-21T01:43:55.747Z,2.11
2023-01-21T01:45:05.544Z,2.01
2023-01-21T01:46:09.187Z,2.01
2023-01-21T01:47:13.015Z,2.09
2023-01-21T01:48:22.626Z,2.33
2023-01-21T01:49:25.832Z,2.14
2023-01-21T01:50:32.494Z,2.26
2023-01-21T01:51:48.127Z,1.98
2023-01-21T01:52:51.411Z,2.38
2023-01-21T01:53:54.537Z,2.39
2023-01-21T01:55:00.642Z,2.29
2023-01-21T01:56:04.168Z,2.67
2023-01-21T01:57:10.008Z,2.66
2023-01-21T01:58:15.778Z,2.70
2023-01-21T01:59:19.561Z,2.61
2023-01-21T02:00:24.391Z,2.87
2023-01-21T02:01:27.615Z,2.82
2023-01-21T02:02:31.657Z,2.65
2023-01-21T02:03:43.827Z,2.89
2023-01-21T02:04:56.126Z,2.31
2023-01-21T02:05:59.332Z,2.87
2023-01-21T02:07:03.409Z,2.79
2023-01-21T02:08:07.389Z,3.03
2023-01-21T02:09:10.655Z,2.58
2023-01-21T02:10:16.760Z,3.34
2023-01-21T02:11:20.751Z,2.86
2023-01-21T02:12:24.418Z,3.32
2023-01-21T02:13:30.704Z,2.95
2023-01-21T02:14:37.981Z,3.04
2023-01-21T02:16:02.771Z,2.96
2023-01-21T02:17:18.312Z,3.43
2023-01-21T02:18:33.959Z,3.45
2023-01-21T02:19:49.407Z,3.48
2023-01-21T02:21:04.982Z,3.69
2023-01-21T02:22:29.643Z,3.71
2023-01-21T02:23:39.341Z,3.25
2023-01-21T02:25:04.032Z,4.45
2023-01-21T02:26:25.997Z,3.66
2023-01-21T02:27:53.690Z,3.46
2023-01-21T02:29:16.748Z,4.37
2023-01-21T02:30:35.642Z,3.49
2023-01-21T02:32:07.833Z,3.51
2023-01-21T02:33:14.568Z,4.40
2023-01-21T02:34:49.954Z,3.97
2023-01-21T02:36:11.920Z,3.84
2023-01-21T02:37:30.689Z,4.03
2023-01-21T02:38:40.042Z,4.37
2023-01-21T02:39:52.748Z,3.88
2023-01-21T02:41:02.283Z,4.49
2023-01-21T02:42:09.011Z,4.22
2023-01-21T02:43:30.897Z,4.58
2023-01-21T02:44:52.634Z,4.97
2023-01-21T02:46:08.445Z,4.24
2023-01-21T02:47:36.228Z,4.19
2023-01-21T02:48:48.497Z,4.04
2023-01-21T02:50:00.984Z,4.29
2023-01-21T02:51:04.583Z,4.68
2023-01-21T02:52:07.849Z,4.92
2023-01-21T02:53:20.598Z,4.87
2023-01-21T02:54:42.251Z,4.18
2023-01-21T02:55:45.446Z,5.07
2023-01-21T02:56:49.613Z,5.17
2023-01-21T02:57:56.287Z,4.51
2023-01-21T02:59:02.668Z,4.46
2023-01-21T03:00:09.819Z,4.63
2023-01-21T03:01:28.280Z,5.01
2023-01-21T03:02:57.713Z,5.18
2023-01-21T03:04:19.423Z,4.67
2023-01-21T03:05:44.163Z,4.35
2023-01-21T03:07:15.052Z,4.84
2023-01-21T03:08:24.084Z,4.68
2023-01-21T03:09:30.059Z,4.69
2023-01-21T03:10:42.655Z,4.43
2023-01-21T03:12:01.400Z,5.15
2023-01-21T03:13:18.737Z,5.00
2023-01-21T03:14:52.893Z,4.87
2023-01-21T03:16:15.996Z,5.62
2023-01-21T03:17:28.491Z,4.84
2023-01-21T03:18:37.800Z,4.52
2023-01-21T03:19:47.568Z,5.15
2023-01-21T03:20:56.985Z,5.01
2023-01-21T03:22:03.926Z,6.01
2023-01-21T03:23:10.535Z,5.67
2023-01-21T03:24:14.402Z,5.38
2023-01-21T03:25:18.090Z,6.02
2023-01-21T03:27:38.593Z,5.69
2023-01-21T03:28:48.309Z,5.83
2023-01-21T03:29:54.920Z,5.04
2023-01-21T03:31:07.299Z,5.72
2023-01-21T03:32:13.984Z,5.47
2023-01-21T03:33:20.146Z,5.52
2023-01-21T03:34:26.614Z,5.61
2023-01-21T03:35:33.227Z,5.56
2023-01-21T03:36:42.594Z,5.98
2023-01-21T03:37:58.358Z,5.22
2023-01-21T03:39:07.953Z,5.59
2023-01-21T03:40:23.903Z,5.78
2023-01-21T03:41:32.412Z,5.98
2023-01-21T03:42:35.990Z,6.16
2023-01-21T03:43:39.477Z,6.13
2023-01-21T03:44:42.933Z,6.06
2023-01-21T03:45:52.725Z,5.78
2023-01-21T03:47:33.179Z,5.56
2023-01-21T03:48:48.945Z,5.64
2023-01-21T03:50:04.759Z,6.08
2023-01-21T03:51:11.535Z,5.18
2023-01-21T03:52:17.080Z,5.54
2023-01-21T03:53:20.527Z,6.14
2023-01-21T03:54:23.482Z,6.44
2023-01-21T03:55:26.542Z,5.81
2023-01-21T03:56:29.796Z,6.16
2023-01-21T03:57:32.949Z,6.40
2023-01-21T03:58:36.233Z,5.96
2023-01-21T03:59:39.389Z,6.09
2023-01-21T04:00:42.554Z,5.52
2023-01-21T04:01:45.701Z,6.21
2023-01-21T04:02:48.764Z,5.69
2023-01-21T04:03:51.832Z,6.01
2023-01-21T04:04:55.036Z,6.03
2023-01-21T04:05:58.192Z,6.14
2023-01-21T04:07:01.272Z,5.69
2023-01-21T04:08:04.408Z,5.81
2023-01-21T04:09:07.867Z,6.33
2023-01-21T04:10:11.416Z,6.53
2023-01-21T04:11:14.681Z,6.05
2023-01-21T04:12:17.989Z,6.40
2023-01-21T04:13:21.199Z,7.02
2023-01-21T04:14:24.355Z,6.14
2023-01-21T04:15:27.438Z,6.20
2023-01-21T04:16:30.582Z,6.07
2023-01-21T04:17:33.814Z,6.26
2023-01-21T04:18:37.101Z,5.96
2023-01-21T04:19:40.272Z,6.47
2023-01-21T04:20:46.024Z,5.29
2023-01-21T04:21:49.231Z,6.40
2023-01-21T04:22:52.539Z,5.53
2023-01-21T04:23:55.588Z,5.99
2023-01-21T04:24:58.758Z,5.14
2023-01-21T04:26:01.926Z,6.18
2023-01-21T04:27:05.202Z,5.86
2023-01-21T04:28:08.409Z,6.22
2023-01-21T04:29:11.469Z,5.18
2023-01-21T04:30:15.145Z,6.13
2023-01-21T04:31:18.423Z,6.21
2023-01-21T04:32:21.587Z,5.63
2023-01-21T04:33:24.719Z,5.52
2023-01-21T04:34:27.890Z,5.46
2023-01-21T04:35:31.092Z,5.70
2023-01-21T04:36:34.153Z,5.31
2023-01-21T04:37:37.347Z,6.03
2023-01-21T04:38:40.426Z,5.87
2023-01-21T04:39:43.607Z,6.22
2023-01-21T04:40:46.778Z,5.67
2023-01-21T04:41:50.275Z,5.54
2023-01-21T04:42:53.457Z,6.59
2023-01-21T04:43:56.643Z,6.16
2023-01-21T04:44:59.817Z,6.66
2023-01-21T04:46:03.017Z,5.87
2023-01-21T04:47:06.162Z,6.33
2023-01-21T04:48:09.280Z,6.08
2023-01-21T04:49:12.449Z,5.83
2023-01-21T04:50:16.522Z,6.06
2023-01-21T04:51:19.814Z,6.65
2023-01-21T04:52:22.946Z,5.22
2023-01-21T04:53:26.146Z,6.16
2023-01-21T04:54:29.334Z,5.91
2023-01-21T04:55:32.505Z,6.27
2023-01-21T04:56:35.663Z,6.12
2023-01-21T04:57:38.871Z,5.30
2023-01-21T04:58:42.110Z,5.67
2023-01-21T04:59:45.276Z,5.56
2023-01-21T05:00:48.425Z,6.09
2023-01-21T05:01:51.613Z,5.70
2023-01-21T05:02:54.690Z,6.04
2023-01-21T05:03:57.871Z,5.94
2023-01-21T05:05:01.030Z,5.88
2023-01-21T05:06:04.342Z,5.60
2023-01-21T05:07:07.348Z,6.08
2023-01-21T05:08:10.545Z,6.05
2023-01-21T05:09:13.696Z,6.44
2023-01-21T05:10:17.902Z,5.61
2023-01-21T05:11:21.269Z,5.24
2023-01-21T05:12:24.322Z,6.14
2023-01-21T05:13:27.400Z,5.46
2023-01-21T05:14:30.536Z,5.75
2023-01-21T05:15:33.779Z,5.66
2023-01-21T05:16:36.942Z,6.74
2023-01-21T05:17:40.085Z,5.76
2023-01-21T05:18:46.708Z,5.80
2023-01-21T05:19:52.623Z,5.91
2023-01-21T05:20:56.432Z,5.88
2023-01-21T05:21:59.572Z,5.76
2023-01-21T05:23:02.847Z,5.31
2023-01-21T05:24:06.131Z,6.14
2023-01-21T05:25:09.448Z,6.01
2023-01-21T05:26:12.935Z,6.31
2023-01-21T05:27:16.135Z,5.89
2023-01-21T05:28:19.256Z,5.89
2023-01-21T05:29:22.455Z,6.24
2023-01-21T05:30:25.704Z,5.98
2023-01-21T05:31:28.947Z,6.52
2023-01-21T05:32:32.033Z,5.70
2023-01-21T05:33:35.710Z,5.24
2023-01-21T05:34:39.072Z,5.61
2023-01-21T05:35:42.244Z,5.88
2023-01-21T05:36:45.492Z,5.94
2023-01-21T05:37:48.558Z,5.81
2023-01-21T05:38:51.827Z,5.22
2023-01-21T05:39:54.994Z,6.09
2023-01-21T05:40:59.543Z,6.09
2023-01-21T05:42:02.937Z,6.42
2023-01-21T05:43:06.086Z,6.28
2023-01-21T05:44:09.725Z,5.96
2023-01-21T05:45:13.428Z,5.79
2023-01-21T05:46:17.555Z,6.31
2023-01-21T05:47:20.608Z,6.02
2023-01-21T05:48:24.349Z,6.98
2023-01-21T05:49:27.510Z,6.61
2023-01-21T05:50:32.013Z,5.89
2023-01-21T05:51:35.263Z,6.95
2023-01-21T05:52:38.623Z,6.24
2023-01-21T05:53:41.707Z,6.39
2023-01-21T05:55:00.596Z,6.77
2023-01-21T05:55:56.667Z,6.94
2023-01-21T05:57:00.086Z,6.39
2023-01-21T05:58:03.345Z,6.29
2023-01-21T05:59:07.120Z,6.11
2023-01-21T06:00:11.277Z,6.49
2023-01-21T06:01:14.526Z,6.43
2023-01-21T06:02:17.651Z,5.89
2023-01-21T06:03:20.902Z,6.31
2023-01-21T06:04:25.873Z,6.11
2023-01-21T06:05:29.666Z,6.23
2023-01-21T06:06:32.767Z,6.65
2023-01-21T06:07:35.945Z,6.29
2023-01-21T06:08:39.218Z,6.18
2023-01-21T06:09:42.435Z,6.49
2023-01-21T06:10:45.846Z,6.16
2023-01-21T06:11:49.077Z,6.74
2023-01-21T06:12:52.393Z,6.60
2023-01-21T06:13:55.547Z,6.99
2023-01-21T06:14:59.895Z,6.49
2023-01-21T06:16:03.096Z,6.51
2023-01-21T06:17:06.273Z,6.39
2023-01-21T06:18:09.366Z,6.56
2023-01-21T06:19:12.416Z,7.10
2023-01-21T06:20:16.032Z,7.28
2023-01-21T06:21:19.341Z,6.43
2023-01-21T06:22:22.579Z,6.91
2023-01-21T06:23:25.749Z,6.62
2023-01-21T06:24:28.856Z,7.68
2023-01-21T06:25:32.752Z,7.82
2023-01-21T06:26:35.834Z,7.75
2023-01-21T06:27:39.045Z,7.06
2023-01-21T06:28:42.235Z,7.56
2023-01-21T06:29:45.297Z,7.07
2023-01-21T06:30:48.941Z,6.90
2023-01-21T06:31:52.281Z,7.55
2023-01-21T06:32:55.549Z,7.21
2023-01-21T06:33:58.715Z,7.25
2023-01-21T06:35:01.995Z,7.11
2023-01-21T06:36:05.547Z,7.49
2023-01-21T06:37:08.584Z,8.15
2023-01-21T06:38:11.646Z,8.01
2023-01-21T06:39:14.809Z,6.90
2023-01-21T06:40:18.570Z,7.26
2023-01-21T06:41:21.756Z,6.71
2023-01-21T06:42:24.917Z,7.19
2023-01-21T06:43:28.063Z,7.89
2023-01-21T06:44:31.262Z,6.92
2023-01-21T06:45:34.413Z,7.08
2023-01-21T06:46:41.282Z,7.24
2023-01-21T06:47:43.726Z,7.18
2023-01-21T06:48:46.896Z,7.95
2023-01-21T06:49:50.046Z,7.25
2023-01-21T06:50:53.314Z,6.53
2023-01-21T06:51:56.514Z,6.85
2023-01-21T06:52:59.665Z,7.58
2023-01-21T06:54:02.875Z,7.48
2023-01-21T06:55:06.396Z,7.35
2023-01-21T06:56:10.093Z,7.82
2023-01-21T06:57:13.470Z,7.51
2023-01-21T06:58:16.670Z,8.58
2023-01-21T06:59:19.857Z,7.33
2023-01-21T07:00:23.127Z,7.98
2023-01-21T07:01:26.322Z,7.26
2023-01-21T07:02:29.564Z,8.43
2023-01-21T07:03:32.928Z,7.91
2023-01-21T07:04:36.111Z,7.62
2023-01-21T07:05:39.303Z,7.56
2023-01-21T07:06:42.371Z,8.33
2023-01-21T07:07:45.535Z,7.44
2023-01-21T07:08:48.896Z,7.85
2023-01-21T07:09:51.974Z,7.66
2023-01-21T07:10:55.462Z,7.97
2023-01-21T07:11:58.645Z,7.51
2023-01-21T07:13:01.902Z,7.11
2023-01-21T07:14:05.058Z,7.95
2023-01-21T07:15:08.859Z,7.98
2023-01-21T07:16:12.286Z,7.81
2023-01-21T07:17:15.972Z,8.00
2023-01-21T07:18:19.193Z,7.55
2023-01-21T07:19:22.305Z,8.68
2023-01-21T07:20:25.733Z,7.87
2023-01-21T07:21:28.911Z,7.45
2023-01-21T07:22:34.511Z,8.16
2023-01-21T07:23:37.692Z,8.02
2023-01-21T07:24:40.882Z,8.21
2023-01-21T07:25:44.167Z,8.94
2023-01-21T07:26:47.727Z,7.86
2023-01-21T07:27:51.466Z,8.29
2023-01-21T07:28:54.638Z,8.68
2023-01-21T07:29:57.867Z,7.69
2023-01-21T07:31:02.373Z,8.15
2023-01-21T07:32:05.628Z,8.40
2023-01-21T07:33:09.779Z,8.03
2023-01-21T07:34:12.953Z,8.36
2023-01-21T07:35:16.412Z,8.43
2023-01-21T07:36:19.746Z,8.49
2023-01-21T07:37:22.979Z,8.53
2023-01-21T07:38:26.177Z,8.74
2023-01-21T07:39:29.285Z,8.99
2023-01-21T07:40:32.468Z,8.91
2023-01-21T07:41:35.667Z,9.48
2023-01-21T07:42:40.619Z,8.48
2023-01-21T07:43:43.812Z,9.30
2023-01-21T07:44:47.045Z,9.15
2023-01-21T07:45:50.320Z,9.71
2023-01-21T07:46:53.623Z,9.06
2023-01-21T07:47:56.797Z,9.22
2023-01-21T07:49:00.159Z,9.68
2023-01-21T07:50:05.339Z,9.85
2023-01-21T07:51:08.607Z,9.63
2023-01-21T07:52:11.719Z,8.62
2023-01-21T07:53:14.921Z,9.01
2023-01-21T07:54:18.108Z,9.94
2023-01-21T07:55:21.494Z,9.13
2023-01-21T07:56:26.265Z,9.59
2023-01-21T07:57:29.563Z,9.37
2023-01-21T07:58:32.787Z,8.86
2023-01-21T07:59:35.994Z,9.15
2023-01-21T08:00:39.167Z,8.91
2023-01-21T08:01:42.401Z,10.58
2023-01-21T08:02:45.689Z,9.64
2023-01-21T08:03:48.781Z,9.64
2023-01-21T08:04:51.923Z,9.43
2023-01-21T08:05:54.873Z,9.23
2023-01-21T08:06:58.352Z,9.47
2023-01-21T08:08:01.570Z,9.67
2023-01-21T08:09:04.756Z,9.56
2023-01-21T08:10:09.081Z,9.15
2023-01-21T08:11:12.163Z,8.34
2023-01-21T08:12:15.314Z,9.29
2023-01-21T08:13:18.463Z,9.46
2023-01-21T08:14:21.682Z,10.49
2023-01-21T08:15:24.857Z,8.87
2023-01-21T08:16:28.072Z,9.94
2023-01-21T08:17:31.312Z,9.41
2023-01-21T08:18:34.408Z,9.33
2023-01-21T08:19:37.459Z,9.90
2023-01-21T08:20:40.531Z,8.66
2023-01-21T08:21:43.601Z,9.09
2023-01-21T08:22:46.752Z,8.52
2023-01-21T08:23:49.895Z,9.28
2023-01-21T08:24:53.066Z,8.45
2023-01-21T08:25:56.233Z,10.06
2023-01-21T08:27:00.055Z,9.15
2023-01-21T08:28:03.086Z,9.66
2023-01-21T08:29:06.215Z,9.56
2023-01-21T08:30:10.475Z,8.61
2023-01-21T08:31:13.856Z,9.67
2023-01-21T08:32:17.041Z,9.40
2023-01-21T08:33:20.195Z,9.23
2023-01-21T08:34:23.362Z,8.34
2023-01-21T08:35:26.447Z,9.15
2023-01-21T08:36:29.727Z,9.34
2023-01-21T08:37:32.674Z,7.94
2023-01-21T08:38:36.129Z,9.50
2023-01-21T08:39:39.155Z,9.40
2023-01-21T08:40:42.602Z,9.55
2023-01-21T08:41:45.899Z,9.17
2023-01-21T08:42:49.071Z,9.04
2023-01-21T08:43:52.138Z,8.91
2023-01-21T08:44:55.322Z,9.33
2023-01-21T08:46:01.107Z,8.94
2023-01-21T08:47:04.142Z,8.24
2023-01-21T08:48:07.318Z,9.07
2023-01-21T08:49:10.491Z,8.21
2023-01-21T08:50:13.815Z,8.69
2023-01-21T08:51:16.937Z,8.57
2023-01-21T08:52:20.971Z,9.16
2023-01-21T08:53:24.576Z,9.27
2023-01-21T08:54:27.681Z,9.73
2023-01-21T08:55:30.868Z,9.23
2023-01-21T08:56:34.318Z,8.46
2023-01-21T08:57:37.518Z,8.98
2023-01-21T08:58:41.206Z,8.81
2023-01-21T08:59:44.282Z,8.69
2023-01-21T09:00:48.172Z,8.80
2023-01-21T09:01:51.438Z,8.77
2023-01-21T09:02:55.804Z,8.19
2023-01-21T09:04:00.793Z,8.86
2023-01-21T09:05:04.386Z,8.50
2023-01-21T09:06:08.084Z,9.20
2023-01-21T09:07:11.297Z,9.23
2023-01-21T09:08:14.578Z,8.45
2023-01-21T09:09:17.979Z,9.34
2023-01-21T09:10:39.305Z,8.41
2023-01-21T09:11:42.665Z,10.32
2023-01-21T09:12:45.783Z,9.50
2023-01-21T09:13:48.932Z,9.39
2023-01-21T09:14:52.054Z,8.69
2023-01-21T09:15:55.211Z,9.13
2023-01-21T09:16:58.436Z,8.67
2023-01-21T09:18:01.611Z,9.46
2023-01-21T09:19:04.937Z,9.30
2023-01-21T09:20:09.716Z,9.37
2023-01-21T09:21:13.722Z,8.61
2023-01-21T09:22:17.491Z,9.28
2023-01-21T09:23:23.637Z,9.10
2023-01-21T09:24:26.828Z,9.29
2023-01-21T09:25:30.023Z,8.73
2023-01-21T09:26:33.208Z,8.82
2023-01-21T09:27:37.072Z,9.16
2023-01-21T09:28:41.759Z,9.66
2023-01-21T09:29:45.160Z,9.59
2023-01-21T09:30:48.340Z,8.58
2023-01-21T09:31:51.528Z,9.08
2023-01-21T09:32:54.734Z,8.69
2023-01-21T09:34:03.497Z,9.28
2023-01-21T09:35:07.611Z,8.82
2023-01-21T09:36:14.338Z,8.81
2023-01-21T09:37:17.515Z,9.19
2023-01-21T09:38:20.881Z,9.19
2023-01-21T09:39:24.233Z,9.15
2023-01-21T09:40:27.490Z,9.56
2023-01-21T09:41:37.049Z,9.29
2023-01-21T09:42:42.028Z,8.97
2023-01-21T09:43:48.695Z,9.67
2023-01-21T09:44:54.581Z,10.37
2023-01-21T09:46:03.725Z,9.07
2023-01-21T09:47:18.458Z,9.29
2023-01-21T09:48:28.250Z,8.53
2023-01-21T09:49:37.716Z,9.43
2023-01-21T09:50:42.911Z,9.41
2023-01-21T09:51:52.781Z,8.48
2023-01-21T09:53:02.486Z,8.89
2023-01-21T09:54:09.134Z,8.81
2023-01-21T09:55:21.648Z,8.81
2023-01-21T09:56:37.234Z,8.52
2023-01-21T09:57:53.213Z,8.64
2023-01-21T09:59:14.339Z,9.17
2023-01-21T10:00:27.450Z,9.18
2023-01-21T10:01:33.907Z,7.98
2023-01-21T10:02:43.738Z,9.17
2023-01-21T10:04:08.738Z,9.21
2023-01-21T10:05:48.267Z,8.57
2023-01-21T10:07:01.439Z,8.33
2023-01-21T10:08:25.621Z,8.34
2023-01-21T10:09:38.577Z,8.59
2023-01-21T10:10:45.342Z,8.26
2023-01-21T10:12:04.028Z,11.02
2023-01-21T10:13:39.429Z,9.14
2023-01-21T10:14:52.317Z,9.62
2023-01-21T10:17:18.492Z,9.42
2023-01-21T10:18:30.726Z,9.92
2023-01-21T10:20:59.097Z,8.41
2023-01-21T10:22:06.014Z,7.31
2023-01-21T10:23:15.441Z,7.02
2023-01-21T10:24:22.088Z,7.84
2023-01-21T10:25:31.033Z,7.88
2023-01-21T10:26:35.389Z,7.67
2023-01-21T10:27:41.975Z,7.31
2023-01-21T10:28:48.713Z,7.26
2023-01-21T10:29:55.441Z,7.73
2023-01-21T10:31:02.255Z,7.78
2023-01-21T10:32:08.892Z,7.44
2023-01-21T10:34:31.433Z,7.69
2023-01-21T10:35:49.798Z,6.85
2023-01-21T10:37:08.635Z,7.42
2023-01-21T10:38:33.647Z,7.03
2023-01-21T10:39:46.239Z,8.10
2023-01-21T10:41:09.731Z,7.43
2023-01-21T10:42:19.219Z,6.49
2023-01-21T10:43:34.813Z,6.72
2023-01-21T10:44:47.515Z,6.53
2023-01-21T10:46:06.450Z,6.01
2023-01-21T10:47:16.032Z,5.91
2023-01-21T10:48:39.454Z,6.78
2023-01-21T10:49:46.485Z,6.08
2023-01-21T10:51:02.233Z,6.15
2023-01-21T10:52:17.643Z,6.26
2023-01-21T10:53:27.114Z,6.20
2023-01-21T10:54:58.065Z,6.46
2023-01-21T10:56:10.610Z,6.19
2023-01-21T10:57:17.360Z,6.31
2023-01-21T10:58:29.820Z,6.11
2023-01-21T10:59:35.933Z,6.64
2023-01-21T11:00:46.817Z,6.73
2023-01-21T11:02:11.500Z,6.44
2023-01-21T11:03:18.177Z,6.46
2023-01-21T11:04:23.376Z,7.64
2023-01-21T11:05:26.991Z,6.82
2023-01-21T11:06:33.239Z,6.19
2023-01-21T11:07:39.608Z,5.65
2023-01-21T11:08:46.196Z,5.82
2023-01-21T11:09:50.835Z,6.13
2023-01-21T11:10:54.874Z,5.23
2023-01-21T11:11:58.236Z,6.02
2023-01-21T11:13:01.433Z,5.29
2023-01-21T11:14:04.587Z,5.30
2023-01-21T11:15:14.015Z,5.61
2023-01-21T11:16:37.584Z,5.22
2023-01-21T11:17:43.590Z,4.97
2023-01-21T11:18:46.901Z,5.32
2023-01-21T11:19:53.659Z,5.15
2023-01-21T11:21:02.535Z,5.26
2023-01-21T11:22:21.390Z,5.43
2023-01-21T11:23:28.065Z,5.57
2023-01-21T11:24:34.332Z,4.86
2023-01-21T11:25:43.252Z,4.97
2023-01-21T11:26:59.139Z,4.78
2023-01-21T11:28:03.886Z,4.97
2023-01-21T11:29:15.391Z,4.66
2023-01-21T11:30:50.523Z,5.15
2023-01-21T11:31:47.887Z,4.86
2023-01-21T11:32:51.093Z,4.92
2023-01-21T11:33:55.383Z,4.44
2023-01-21T11:35:10.903Z,4.92
2023-01-21T11:36:17.134Z,5.55
2023-01-21T11:37:25.874Z,5.18
2023-01-21T11:38:34.156Z,5.89
2023-01-21T11:39:41.106Z,5.19
2023-01-21T11:40:44.809Z,4.73
2023-01-21T11:41:57.099Z,4.74
2023-01-21T11:43:00.334Z,4.79
2023-01-21T11:44:18.214Z,5.11
2023-01-21T11:45:33.276Z,4.90
2023-01-21T11:46:40.829Z,4.78
2023-01-21T11:47:49.133Z,5.11
2023-01-21T11:49:09.411Z,4.78
2023-01-21T11:50:25.383Z,4.54
2023-01-21T11:51:28.733Z,5.60
2023-01-21T11:52:31.887Z,5.30
2023-01-21T11:53:35.058Z,4.71
2023-01-21T11:54:39.862Z,5.03
2023-01-21T11:55:46.353Z,4.79
2023-01-21T11:57:01.728Z,5.31
2023-01-21T11:58:06.048Z,4.51
2023-01-21T11:59:18.410Z,5.34
2023-01-21T12:00:24.368Z,5.32
2023-01-21T12:01:28.976Z,5.19
2023-01-21T12:02:35.763Z,5.03
2023-01-21T12:03:54.568Z,4.79
2023-01-21T12:05:13.389Z,4.83
2023-01-21T12:06:25.994Z,5.22
2023-01-21T12:07:32.110Z,5.13
2023-01-21T12:08:38.880Z,4.94
2023-01-21T12:09:46.014Z,4.52
2023-01-21T12:10:52.319Z,4.42
2023-01-21T12:12:17.348Z,5.01
2023-01-21T12:13:49.910Z,5.33
2023-01-21T12:15:02.470Z,4.82
2023-01-21T12:16:32.653Z,4.49
2023-01-21T12:17:51.408Z,5.33
2023-01-21T12:19:07.162Z,4.86
2023-01-21T12:20:20.323Z,4.75
2023-01-21T12:21:49.537Z,4.97
2023-01-21T12:23:02.143Z,5.19
2023-01-21T12:24:25.698Z,4.84
2023-01-21T12:25:37.337Z,5.78
2023-01-21T12:26:46.966Z,5.01
2023-01-21T12:27:59.620Z,5.30
2023-01-21T12:29:23.756Z,5.14
2023-01-21T12:30:36.643Z,4.72
2023-01-21T12:31:55.334Z,5.53
2023-01-21T12:33:05.080Z,5.12
2023-01-21T12:34:14.838Z,5.16
2023-01-21T12:35:24.931Z,4.62
2023-01-21T12:36:40.713Z,16.39
2023-01-21T12:37:47.859Z,6.58
2023-01-21T12:38:57.285Z,7.01
2023-01-21T12:40:05.034Z,5.14
2023-01-21T12:41:20.603Z,5.06
2023-01-21T12:42:28.752Z,4.42
2023-01-21T12:43:38.226Z,4.91
2023-01-21T12:45:04.189Z,5.22
2023-01-21T12:46:23.053Z,4.92
2023-01-21T12:47:44.905Z,5.56
2023-01-21T12:49:09.815Z,5.51
2023-01-21T12:50:22.983Z,5.40
2023-01-21T12:51:29.722Z,5.74
2023-01-21T12:52:48.657Z,5.71
2023-01-21T12:54:30.368Z,6.25
2023-01-21T12:56:09.089Z,6.36
2023-01-21T12:57:27.434Z,6.87
2023-01-21T12:58:45.770Z,5.92
2023-01-21T12:59:58.613Z,6.61
2023-01-21T13:01:05.535Z,5.38
2023-01-21T13:02:34.849Z,6.08
2023-01-21T13:03:41.618Z,5.83
2023-01-21T13:05:09.610Z,6.09
2023-01-21T13:06:52.024Z,5.43
2023-01-21T13:07:59.709Z,6.11
2023-01-21T13:09:15.403Z,6.10
2023-01-21T13:10:34.316Z,5.72
2023-01-21T13:11:41.055Z,5.71
2023-01-21T13:12:53.802Z,5.46
2023-01-21T13:14:09.407Z,5.57
2023-01-21T13:15:21.762Z,6.30
2023-01-21T13:16:26.120Z,6.45
2023-01-21T13:17:32.928Z,6.21
2023-01-21T13:18:39.187Z,6.62
2023-01-21T13:19:42.432Z,6.26
2023-01-21T13:20:49.409Z,6.26
2023-01-21T13:22:10.482Z,7.65
2023-01-21T13:23:23.107Z,5.74
2023-01-21T13:24:35.574Z,6.59
2023-01-21T13:25:48.188Z,7.21
2023-01-21T13:27:06.846Z,6.91
2023-01-21T13:28:19.735Z,6.52
2023-01-21T13:29:38.394Z,7.47
2023-01-21T13:30:51.166Z,6.57
2023-01-21T13:32:19.103Z,7.27
2023-01-21T13:33:46.395Z,7.36
2023-01-21T13:36:25.377Z,7.44
2023-01-21T13:37:44.022Z,7.33
2023-01-21T13:38:53.559Z,7.21
2023-01-21T13:40:15.648Z,7.73
2023-01-21T13:41:22.459Z,7.98
2023-01-21T13:42:34.927Z,7.42
2023-01-21T13:43:52.746Z,7.66
2023-01-21T13:45:23.614Z,7.53
2023-01-21T13:46:42.253Z,7.62
2023-01-21T13:48:01.524Z,7.79
2023-01-21T13:49:20.480Z,7.76
2023-01-21T13:50:45.949Z,8.12
2023-01-21T13:52:15.101Z,8.51
2023-01-21T13:53:44.464Z,8.00
2023-01-21T13:55:07.568Z,7.41
2023-01-21T13:56:38.742Z,7.98
2023-01-21T13:58:05.351Z,10.93
2023-01-21T13:59:26.957Z,11.58
2023-01-21T14:00:39.600Z,13.38
2023-01-21T14:01:46.395Z,12.51
2023-01-21T14:03:08.127Z,13.36
2023-01-21T14:04:34.199Z,13.75
2023-01-21T14:05:55.845Z,13.57
2023-01-21T14:07:20.383Z,12.56
2023-01-21T14:08:33.345Z,11.51
2023-01-21T14:09:48.906Z,10.32
2023-01-21T14:11:01.654Z,9.43
2023-01-21T14:12:17.260Z,10.92
2023-01-21T14:13:35.871Z,11.21
2023-01-21T14:14:57.610Z,11.21
2023-01-21T14:16:36.015Z,10.59
2023-01-21T14:17:42.786Z,10.50
2023-01-21T14:19:12.342Z,9.87
2023-01-21T14:20:25.075Z,10.27
2023-01-21T14:21:52.723Z,10.39
2023-01-21T14:23:16.307Z,10.64
2023-01-21T14:24:23.059Z,10.29
2023-01-21T14:25:44.979Z,11.32
2023-01-21T14:26:51.867Z,10.28
2023-01-21T14:28:10.497Z,9.63
2023-01-21T14:29:20.395Z,10.07
2023-01-21T14:30:30.052Z,9.82
2023-01-21T14:31:39.917Z,9.37
2023-01-21T14:32:55.676Z,10.46
2023-01-21T14:34:24.934Z,10.26
2023-01-21T14:35:43.583Z,9.61
2023-01-21T14:37:08.339Z,10.07
2023-01-21T14:38:36.290Z,10.42
2023-01-21T14:40:12.994Z,12.55
2023-01-21T14:41:16.189Z,10.73
2023-01-21T14:42:21.414Z,12.29
2023-01-21T14:43:35.849Z,10.86
2023-01-21T14:44:51.573Z,11.11
2023-01-21T14:45:57.102Z,10.46
2023-01-21T14:47:18.854Z,11.51
2023-01-21T14:48:37.158Z,11.96
2023-01-21T14:49:46.711Z,10.57
2023-01-21T14:50:54.485Z,11.38
2023-01-21T14:51:58.542Z,11.17
2023-01-21T14:53:05.282Z,11.84
2023-01-21T14:54:26.845Z,11.54
2023-01-21T14:55:32.337Z,10.79
2023-01-21T14:56:37.166Z,11.22
2023-01-21T14:57:43.365Z,11.58
2023-01-21T14:58:49.191Z,10.92
2023-01-21T14:59:55.124Z,11.83
2023-01-21T15:00:58.582Z,13.58
2023-01-21T15:02:05.369Z,14.00
2023-01-21T15:03:18.075Z,13.40
2023-01-21T15:04:27.612Z,14.08
2023-01-21T15:05:36.049Z,13.29
2023-01-21T15:06:40.357Z,12.54
2023-01-21T15:07:46.887Z,13.15
2023-01-21T15:08:53.354Z,11.31
2023-01-21T15:09:59.592Z,11.24